createdAt,value
2023-05-19T00:00:08.315Z,84.80
2023-05-19T00:03:54.801Z,85.10
2023-05-19T00:07:39.135Z,85.40
2023-05-19T00:11:22.990Z,87.10
2023-05-19T00:15:05.855Z,87.00
2023-05-19T00:18:48.360Z,87.60
2023-05-19T00:22:30.467Z,88.80
2023-05-19T00:26:12.829Z,88.50
2023-05-19T00:29:55.278Z,90.20
2023-05-19T00:33:37.184Z,90.40
2023-05-19T00:37:19.179Z,90.60
2023-05-19T00:41:02.164Z,91.10
2023-05-19T00:44:44.227Z,91.80
2023-05-19T00:48:26.725Z,91.90
2023-05-19T00:52:08.734Z,92.60
2023-05-19T00:55:51.002Z,92.70
2023-05-19T00:59:33.093Z,93.00
2023-05-19T01:03:15.271Z,93.60
2023-05-19T01:06:57.625Z,93.70
2023-05-19T01:10:39.867Z,94.50
2023-05-19T01:14:22.135Z,94.60
2023-05-19T01:18:19.632Z,95.00
2023-05-19T01:22:14.765Z,94.60
2023-05-19T01:26:31.645Z,95.50
2023-05-19T01:30:27.960Z,95.60
2023-05-19T01:34:12.266Z,96.20
2023-05-19T01:38:01.542Z,97.10
2023-05-19T01:41:45.850Z,96.70
2023-05-19T01:45:33.094Z,97.70
2023-05-19T01:49:15.451Z,98.00
2023-05-19T01:52:57.471Z,98.80
2023-05-19T01:56:58.017Z,99.10
2023-05-19T02:00:53.387Z,99.30
2023-05-19T02:04:47.274Z,98.60
2023-05-19T02:08:41.800Z,99.70
2023-05-19T02:12:29.264Z,99.50
2023-05-19T02:16:13.708Z,99.90
2023-05-19T02:19:56.846Z,99.90
2023-05-19T02:23:39.907Z,99.90
2023-05-19T02:27:21.916Z,99.90
2023-05-19T02:31:05.903Z,99.90
2023-05-19T02:34:48.078Z,99.90
2023-05-19T02:38:30.030Z,99.90
2023-05-19T02:42:12.540Z,99.90
2023-05-19T02:45:54.529Z,99.90
2023-05-19T02:49:36.440Z,99.90
2023-05-19T02:53:18.541Z,99.90
2023-05-19T02:57:01.551Z,99.90
2023-05-19T03:00:45.321Z,99.90
2023-05-19T03:04:28.120Z,99.90
2023-05-19T03:08:10.575Z,99.90
2023-05-19T03:11:52.528Z,99.90
2023-05-19T03:15:34.522Z,99.90
2023-05-19T03:19:16.602Z,99.90
2023-05-19T03:22:58.830Z,99.90
2023-05-19T03:26:41.103Z,99.90
2023-05-19T03:30:23.037Z,99.90
2023-05-19T03:34:04.987Z,99.90
2023-05-19T03:37:47.225Z,99.90
2023-05-19T03:41:29.165Z,99.90
2023-05-19T03:45:11.368Z,99.90
2023-05-19T03:48:53.559Z,99.90
2023-05-19T03:52:36.335Z,99.90
2023-05-19T03:56:18.478Z,99.90
2023-05-19T04:00:00.468Z,99.90
2023-05-19T04:03:42.483Z,99.90
2023-05-19T04:07:24.514Z,99.90
2023-05-19T04:11:06.491Z,99.90
2023-05-19T04:14:48.531Z,99.90
2023-05-19T04:18:30.715Z,99.90
2023-05-19T04:22:12.670Z,99.90
2023-05-19T04:25:55.225Z,99.90
2023-05-19T04:33:37.838Z,99.90
2023-05-19T04:37:20.241Z,99.90
2023-05-19T04:41:10.723Z,99.90
2023-05-19T04:44:53.119Z,99.90
2023-05-19T04:48:35.261Z,99.90
2023-05-19T04:53:03.947Z,99.90
2023-05-19T04:57:10.670Z,99.90
2023-05-19T05:00:55.912Z,99.90
2023-05-19T05:05:24.584Z,99.90
2023-05-19T05:09:35.879Z,99.90
2023-05-19T05:13:19.408Z,99.90
2023-05-19T05:17:31.023Z,99.90
2023-05-19T05:21:13.342Z,99.90
2023-05-19T05:25:24.098Z,99.90
2023-05-19T05:29:06.746Z,99.90
2023-05-19T05:36:52.635Z,99.90
2023-05-19T05:41:10.249Z,99.90
2023-05-19T05:44:53.018Z,99.90
2023-05-19T05:49:03.277Z,99.90
2023-05-19T05:52:47.549Z,99.90
2023-05-19T06:00:34.784Z,99.90
2023-05-19T06:09:21.133Z,99.90
2023-05-19T06:13:03.131Z,99.90
2023-05-19T06:17:13.336Z,99.90
2023-05-19T06:20:56.150Z,99.90
2023-05-19T06:28:38.507Z,99.90
2023-05-19T06:36:32.494Z,99.90
2023-05-19T06:40:50.474Z,99.90
2023-05-19T07:02:27.832Z,94.20
2023-05-19T07:10:17.776Z,88.70
2023-05-19T07:19:13.942Z,83.90
2023-05-19T07:28:10.770Z,77.90
2023-05-19T07:41:54.317Z,71.20
2023-05-19T08:12:15.265Z,57.70
2023-05-19T08:24:32.508Z,54.60
2023-05-19T08:42:32.587Z,54.80
2023-05-19T08:56:05.570Z,51.80
2023-05-19T09:00:34.457Z,51.30
2023-05-19T09:09:34.977Z,51.20
2023-05-19T09:23:05.774Z,51.60
2023-05-19T09:32:16.913Z,49.10
2023-05-19T09:36:37.503Z,44.50
2023-05-19T09:45:12.175Z,46.50
2023-05-19T10:01:31.609Z,46.10
2023-05-19T10:05:52.194Z,46.40
2023-05-19T10:45:22.774Z,47.20
2023-05-19T10:54:18.951Z,47.60
2023-05-19T11:03:18.993Z,48.30
2023-05-19T11:12:20.268Z,52.10
2023-05-19T11:29:24.053Z,55.60
2023-05-19T11:47:15.863Z,54.70
2023-05-19T12:00:48.592Z,54.80
2023-05-19T12:14:16.376Z,56.50
2023-05-19T12:23:18.346Z,56.10
2023-05-19T12:32:19.458Z,55.60
2023-05-19T12:36:49.314Z,56.10
2023-05-19T12:41:19.871Z,55.90
2023-05-19T12:50:20.672Z,56.00
2023-05-19T12:59:30.937Z,57.50
2023-05-19T13:27:33.696Z,57.50
2023-05-19T13:32:01.622Z,57.20
2023-05-19T13:36:31.532Z,58.10
2023-05-19T13:41:03.352Z,59.50
2023-05-19T13:54:30.463Z,70.70
2023-05-19T14:27:11.034Z,67.90
2023-05-19T14:40:54.274Z,63.90
2023-05-19T15:18:06.530Z,66.70
2023-05-19T15:22:27.329Z,66.30
2023-05-19T15:57:27.450Z,69.90
2023-05-19T16:33:34.768Z,73.40
2023-05-19T16:38:05.428Z,73.70
2023-05-19T16:47:00.896Z,74.40
2023-05-19T17:02:48.099Z,74.60
2023-05-19T17:16:16.544Z,77.30
2023-05-19T17:25:20.735Z,78.00
2023-05-19T17:34:19.612Z,77.40
2023-05-19T17:38:50.544Z,77.50
2023-05-19T17:43:18.428Z,76.30
2023-05-19T17:47:49.483Z,76.90
2023-05-19T17:52:20.272Z,77.50
2023-05-19T18:05:54.640Z,80.60
2023-05-19T18:10:21.024Z,80.80
2023-05-19T18:14:51.403Z,81.60
2023-05-19T18:23:54.360Z,83.80
2023-05-19T18:40:47.460Z,86.10
2023-05-19T18:45:17.923Z,87.90
2023-05-19T18:54:16.777Z,87.30
2023-05-19T19:03:17.714Z,88.50
2023-05-19T19:45:03.138Z,91.80
2023-05-19T19:54:04.480Z,92.90
2023-05-19T20:07:21.011Z,94.80
2023-05-19T20:11:03.179Z,95.90
2023-05-19T20:14:46.420Z,96.30
2023-05-19T20:18:30.061Z,97.20
2023-05-19T20:22:12.369Z,97.90
2023-05-19T20:26:06.671Z,98.50
2023-05-19T20:29:53.813Z,99.10
2023-05-19T20:33:36.079Z,99.80
2023-05-19T20:37:18.123Z,99.90
2023-05-19T20:41:00.167Z,99.90
2023-05-19T20:44:42.447Z,99.90
2023-05-19T20:48:24.566Z,99.90
2023-05-19T20:52:07.153Z,99.90
2023-05-19T20:55:49.476Z,99.90
2023-05-19T20:59:31.676Z,99.90
2023-05-19T21:03:13.861Z,99.90
2023-05-19T21:06:56.182Z,99.90
2023-05-19T21:10:38.488Z,99.90
2023-05-19T21:14:23.398Z,99.90
2023-05-19T21:18:07.452Z,99.90
2023-05-19T21:21:50.139Z,99.90
2023-05-19T21:25:32.143Z,99.90
2023-05-19T21:29:14.127Z,99.90
2023-05-19T21:32:56.254Z,99.90
2023-05-19T21:36:38.429Z,99.90
2023-05-19T21:40:20.448Z,99.90
2023-05-19T21:44:02.630Z,99.90
2023-05-19T21:47:44.549Z,99.90
2023-05-19T21:51:29.304Z,99.90
2023-05-19T21:55:11.443Z,99.90
2023-05-19T21:58:53.669Z,99.90
2023-05-19T22:02:35.888Z,99.90
2023-05-19T22:06:17.922Z,99.90
2023-05-19T22:09:59.931Z,99.90
2023-05-19T22:13:42.248Z,99.90
2023-05-19T22:17:24.555Z,99.90
2023-05-19T22:21:06.681Z,99.90
2023-05-19T22:24:49.060Z,99.90
2023-05-19T22:28:31.066Z,99.90
2023-05-19T22:32:14.178Z,99.90
2023-05-19T22:35:56.194Z,99.90
2023-05-19T22:39:39.384Z,99.90
2023-05-19T22:43:21.335Z,99.90
2023-05-19T22:47:03.297Z,99.90
2023-05-19T22:50:45.357Z,99.90
2023-05-19T22:54:27.426Z,99.90
2023-05-19T22:58:09.463Z,99.90
2023-05-19T23:01:51.450Z,99.90
2023-05-19T23:05:33.875Z,99.90
2023-05-19T23:09:16.393Z,99.90
2023-05-19T23:12:58.401Z,99.90
2023-05-19T23:16:40.445Z,99.90
2023-05-19T23:20:22.471Z,99.90
2023-05-19T23:24:05.834Z,99.90
2023-05-19T23:27:47.955Z,99.90
2023-05-19T23:31:30.033Z,99.90
2023-05-19T23:35:13.483Z,99.90
2023-05-19T23:38:55.619Z,99.90
2023-05-19T23:42:37.794Z,99.90
2023-05-19T23:46:19.809Z,99.90
2023-05-19T23:50:01.936Z,99.90
2023-05-19T23:53:43.900Z,99.90
2023-05-19T23:57:25.836Z,99.90
